sensor_id;sensor_type;location;lat;lon;timestamp;P1;durP1;ratioP1;P2;durP2;ratioP2
64712;SDS011;51140;45.340;5.980;2023-07-13T00:01:42;16.50;;;8.63;;
64712;SDS011;51140;45.340;5.980;2023-07-13T00:04:08;18.23;;;9.15;;
64712;SDS011;51140;45.340;5.980;2023-07-13T00:06:33;15.23;;;9.10;;
64712;SDS011;51140;45.340;5.980;2023-07-13T00:09:00;16.25;;;9.57;;
64712;SDS011;51140;45.340;5.980;2023-07-13T00:11:26;17.80;;;9.27;;
64712;SDS011;51140;45.340;5.980;2023-07-13T00:13:52;16.00;;;8.98;;
64712;SDS011;51140;45.340;5.980;2023-07-13T00:16:17;20.45;;;8.75;;
64712;SDS011;51140;45.340;5.980;2023-07-13T00:18:44;13.48;;;8.68;;
64712;SDS011;51140;45.340;5.980;2023-07-13T00:21:10;19.10;;;9.50;;
64712;SDS011;51140;45.340;5.980;2023-07-13T00:23:37;17.23;;;8.95;;
64712;SDS011;51140;45.340;5.980;2023-07-13T00:26:04;12.95;;;8.05;;
64712;SDS011;51140;45.340;5.980;2023-07-13T00:28:31;15.27;;;8.80;;
64712;SDS011;51140;45.340;5.980;2023-07-13T00:30:57;17.35;;;7.93;;
64712;SDS011;51140;45.340;5.980;2023-07-13T00:33:23;15.32;;;8.50;;
64712;SDS011;51140;45.340;5.980;2023-07-13T00:35:49;15.60;;;8.90;;
64712;SDS011;51140;45.340;5.980;2023-07-13T00:38:15;14.90;;;8.55;;
64712;SDS011;51140;45.340;5.980;2023-07-13T00:40:40;17.92;;;8.43;;
64712;SDS011;51140;45.340;5.980;2023-07-13T00:43:10;13.32;;;7.43;;
64712;SDS011;51140;45.340;5.980;2023-07-13T00:48:13;17.00;;;6.00;;
64712;SDS011;51140;45.340;5.980;2023-07-13T00:50:40;17.08;;;5.90;;
64712;SDS011;51140;45.340;5.980;2023-07-13T00:53:07;16.65;;;5.80;;
64712;SDS011;51140;45.340;5.980;2023-07-13T00:55:33;16.42;;;5.97;;
64712;SDS011;51140;45.340;5.980;2023-07-13T00:57:59;9.93;;;4.85;;
64712;SDS011;51140;45.340;5.980;2023-07-13T01:00:26;11.75;;;5.80;;
64712;SDS011;51140;45.340;5.980;2023-07-13T01:02:54;13.98;;;5.90;;
64712;SDS011;51140;45.340;5.980;2023-07-13T01:05:20;11.90;;;6.05;;
64712;SDS011;51140;45.340;5.980;2023-07-13T01:07:47;13.05;;;4.90;;
64712;SDS011;51140;45.340;5.980;2023-07-13T01:10:16;10.50;;;4.47;;
64712;SDS011;51140;45.340;5.980;2023-07-13T01:12:42;8.52;;;4.82;;
64712;SDS011;51140;45.340;5.980;2023-07-13T01:18:13;10.77;;;4.82;;
64712;SDS011;51140;45.340;5.980;2023-07-13T01:20:46;10.63;;;4.22;;
64712;SDS011;51140;45.340;5.980;2023-07-13T01:23:15;9.60;;;3.85;;
64712;SDS011;51140;45.340;5.980;2023-07-13T01:25:41;9.32;;;4.40;;
64712;SDS011;51140;45.340;5.980;2023-07-13T01:28:07;8.90;;;3.88;;
64712;SDS011;51140;45.340;5.980;2023-07-13T01:30:36;9.55;;;3.95;;
64712;SDS011;51140;45.340;5.980;2023-07-13T01:33:05;9.15;;;4.30;;
64712;SDS011;51140;45.340;5.980;2023-07-13T01:35:34;11.23;;;4.40;;
64712;SDS011;51140;45.340;5.980;2023-07-13T01:38:00;9.00;;;4.20;;
64712;SDS011;51140;45.340;5.980;2023-07-13T01:40:26;10.05;;;4.20;;
64712;SDS011;51140;45.340;5.980;2023-07-13T01:42:52;12.80;;;4.22;;
64712;SDS011;51140;45.340;5.980;2023-07-13T01:45:17;9.60;;;3.97;;
64712;SDS011;51140;45.340;5.980;2023-07-13T01:47:43;10.85;;;3.83;;
64712;SDS011;51140;45.340;5.980;2023-07-13T01:50:08;12.25;;;4.40;;
64712;SDS011;51140;45.340;5.980;2023-07-13T01:52:34;10.18;;;3.90;;
64712;SDS011;51140;45.340;5.980;2023-07-13T01:54:59;7.30;;;3.45;;
64712;SDS011;51140;45.340;5.980;2023-07-13T01:57:25;8.60;;;3.65;;
64712;SDS011;51140;45.340;5.980;2023-07-13T01:59:50;11.95;;;3.50;;
64712;SDS011;51140;45.340;5.980;2023-07-13T02:02:15;10.93;;;3.33;;
64712;SDS011;51140;45.340;5.980;2023-07-13T02:04:41;9.52;;;3.35;;
64712;SDS011;51140;45.340;5.980;2023-07-13T02:07:07;8.68;;;3.30;;
64712;SDS011;51140;45.340;5.980;2023-07-13T02:09:33;10.57;;;3.80;;
64712;SDS011;51140;45.340;5.980;2023-07-13T02:11:58;8.52;;;3.42;;
64712;SDS011;51140;45.340;5.980;2023-07-13T02:14:24;8.25;;;3.30;;
64712;SDS011;51140;45.340;5.980;2023-07-13T02:16:49;8.43;;;3.00;;
64712;SDS011;51140;45.340;5.980;2023-07-13T02:19:14;10.43;;;3.38;;
64712;SDS011;51140;45.340;5.980;2023-07-13T02:21:40;8.55;;;3.25;;
64712;SDS011;51140;45.340;5.980;2023-07-13T02:24:05;7.80;;;3.05;;
64712;SDS011;51140;45.340;5.980;2023-07-13T02:26:31;7.55;;;3.20;;
64712;SDS011;51140;45.340;5.980;2023-07-13T02:28:56;7.03;;;3.35;;
64712;SDS011;51140;45.340;5.980;2023-07-13T02:31:21;10.70;;;3.45;;
64712;SDS011;51140;45.340;5.980;2023-07-13T02:33:47;9.02;;;3.05;;
64712;SDS011;51140;45.340;5.980;2023-07-13T02:36:12;9.40;;;3.70;;
64712;SDS011;51140;45.340;5.980;2023-07-13T02:38:39;8.95;;;3.45;;
64712;SDS011;51140;45.340;5.980;2023-07-13T02:41:05;11.13;;;3.50;;
64712;SDS011;51140;45.340;5.980;2023-07-13T02:43:33;7.78;;;2.90;;
64712;SDS011;51140;45.340;5.980;2023-07-13T02:45:59;9.48;;;3.70;;
64712;SDS011;51140;45.340;5.980;2023-07-13T02:48:31;9.30;;;4.32;;
64712;SDS011;51140;45.340;5.980;2023-07-13T02:50:57;10.43;;;3.80;;
64712;SDS011;51140;45.340;5.980;2023-07-13T02:53:22;14.05;;;3.20;;
64712;SDS011;51140;45.340;5.980;2023-07-13T02:55:47;7.25;;;3.25;;
64712;SDS011;51140;45.340;5.980;2023-07-13T02:58:13;8.23;;;3.28;;
64712;SDS011;51140;45.340;5.980;2023-07-13T03:00:42;8.65;;;2.70;;
64712;SDS011;51140;45.340;5.980;2023-07-13T03:03:08;9.70;;;4.00;;
64712;SDS011;51140;45.340;5.980;2023-07-13T03:05:33;9.15;;;3.40;;
64712;SDS011;51140;45.340;5.980;2023-07-13T03:07:59;8.38;;;3.08;;
64712;SDS011;51140;45.340;5.980;2023-07-13T03:10:24;8.55;;;3.05;;
64712;SDS011;51140;45.340;5.980;2023-07-13T03:12:50;12.75;;;4.32;;
64712;SDS011;51140;45.340;5.980;2023-07-13T03:15:15;9.23;;;3.17;;
64712;SDS011;51140;45.340;5.980;2023-07-13T03:17:41;9.52;;;3.40;;
64712;SDS011;51140;45.340;5.980;2023-07-13T03:20:06;11.27;;;3.53;;
64712;SDS011;51140;45.340;5.980;2023-07-13T03:22:32;9.68;;;3.10;;
64712;SDS011;51140;45.340;5.980;2023-07-13T03:24:57;10.82;;;3.30;;
64712;SDS011;51140;45.340;5.980;2023-07-13T03:27:23;6.15;;;2.83;;
64712;SDS011;51140;45.340;5.980;2023-07-13T03:29:48;9.95;;;3.38;;
64712;SDS011;51140;45.340;5.980;2023-07-13T03:32:14;9.25;;;3.22;;
64712;SDS011;51140;45.340;5.980;2023-07-13T03:34:39;10.32;;;3.22;;
64712;SDS011;51140;45.340;5.980;2023-07-13T03:37:04;12.65;;;3.15;;
64712;SDS011;51140;45.340;5.980;2023-07-13T03:39:30;7.78;;;3.08;;
64712;SDS011;51140;45.340;5.980;2023-07-13T03:41:55;8.85;;;3.08;;
64712;SDS011;51140;45.340;5.980;2023-07-13T03:44:21;10.75;;;3.10;;
64712;SDS011;51140;45.340;5.980;2023-07-13T03:46:46;8.20;;;2.85;;
64712;SDS011;51140;45.340;5.980;2023-07-13T03:49:12;11.35;;;3.22;;
64712;SDS011;51140;45.340;5.980;2023-07-13T03:51:37;14.38;;;3.63;;
64712;SDS011;51140;45.340;5.980;2023-07-13T03:54:03;8.10;;;2.80;;
64712;SDS011;51140;45.340;5.980;2023-07-13T03:56:29;12.75;;;3.40;;
64712;SDS011;51140;45.340;5.980;2023-07-13T03:58:55;10.50;;;3.50;;
64712;SDS011;51140;45.340;5.980;2023-07-13T04:01:21;7.45;;;2.95;;
64712;SDS011;51140;45.340;5.980;2023-07-13T04:03:48;9.05;;;2.83;;
64712;SDS011;51140;45.340;5.980;2023-07-13T04:06:21;8.13;;;2.80;;
64712;SDS011;51140;45.340;5.980;2023-07-13T04:08:50;8.80;;;3.20;;
64712;SDS011;51140;45.340;5.980;2023-07-13T04:11:18;6.80;;;2.60;;
64712;SDS011;51140;45.340;5.980;2023-07-13T04:13:45;6.25;;;3.13;;
64712;SDS011;51140;45.340;5.980;2023-07-13T04:16:11;10.52;;;3.00;;
64712;SDS011;51140;45.340;5.980;2023-07-13T04:18:37;9.60;;;2.70;;
64712;SDS011;51140;45.340;5.980;2023-07-13T04:21:02;9.60;;;2.65;;
64712;SDS011;51140;45.340;5.980;2023-07-13T04:23:29;11.05;;;2.65;;
64712;SDS011;51140;45.340;5.980;2023-07-13T04:25:54;7.20;;;2.83;;
64712;SDS011;51140;45.340;5.980;2023-07-13T04:28:20;8.82;;;3.28;;
64712;SDS011;51140;45.340;5.980;2023-07-13T04:30:47;7.97;;;2.35;;
64712;SDS011;51140;45.340;5.980;2023-07-13T04:33:12;12.90;;;3.10;;
64712;SDS011;51140;45.340;5.980;2023-07-13T04:35:37;6.78;;;2.72;;
64712;SDS011;51140;45.340;5.980;2023-07-13T04:38:03;9.77;;;3.53;;
64712;SDS011;51140;45.340;5.980;2023-07-13T04:40:29;9.32;;;3.00;;
64712;SDS011;51140;45.340;5.980;2023-07-13T04:42:54;7.25;;;3.13;;
64712;SDS011;51140;45.340;5.980;2023-07-13T04:45:21;6.70;;;2.78;;
64712;SDS011;51140;45.340;5.980;2023-07-13T04:47:47;12.20;;;3.58;;
64712;SDS011;51140;45.340;5.980;2023-07-13T04:50:12;7.78;;;3.35;;
64712;SDS011;51140;45.340;5.980;2023-07-13T04:52:46;10.95;;;3.30;;
64712;SDS011;51140;45.340;5.980;2023-07-13T04:55:11;14.38;;;3.75;;
64712;SDS011;51140;45.340;5.980;2023-07-13T04:57:37;11.63;;;3.80;;
64712;SDS011;51140;45.340;5.980;2023-07-13T05:00:02;9.82;;;3.53;;
64712;SDS011;51140;45.340;5.980;2023-07-13T05:02:31;7.70;;;3.80;;
64712;SDS011;51140;45.340;5.980;2023-07-13T05:04:57;14.40;;;4.00;;
64712;SDS011;51140;45.340;5.980;2023-07-13T05:07:23;11.20;;;3.53;;
64712;SDS011;51140;45.340;5.980;2023-07-13T05:09:50;9.90;;;3.58;;
64712;SDS011;51140;45.340;5.980;2023-07-13T05:12:15;9.52;;;3.88;;
64712;SDS011;51140;45.340;5.980;2023-07-13T05:14:41;11.57;;;4.25;;
64712;SDS011;51140;45.340;5.980;2023-07-13T05:17:06;9.15;;;3.90;;
64712;SDS011;51140;45.340;5.980;2023-07-13T05:19:31;13.27;;;4.10;;
64712;SDS011;51140;45.340;5.980;2023-07-13T05:21:57;10.63;;;3.83;;
64712;SDS011;51140;45.340;5.980;2023-07-13T05:24:22;9.90;;;3.10;;
64712;SDS011;51140;45.340;5.980;2023-07-13T05:26:48;10.57;;;3.30;;
64712;SDS011;51140;45.340;5.980;2023-07-13T05:29:13;8.00;;;3.05;;
64712;SDS011;51140;45.340;5.980;2023-07-13T05:31:39;14.07;;;3.30;;
64712;SDS011;51140;45.340;5.980;2023-07-13T05:34:04;8.40;;;3.22;;
64712;SDS011;51140;45.340;5.980;2023-07-13T05:36:30;9.20;;;3.17;;
64712;SDS011;51140;45.340;5.980;2023-07-13T05:38:55;8.05;;;2.97;;
64712;SDS011;51140;45.340;5.980;2023-07-13T05:41:21;16.58;;;3.70;;
64712;SDS011;51140;45.340;5.980;2023-07-13T05:43:46;9.25;;;3.80;;
64712;SDS011;51140;45.340;5.980;2023-07-13T05:46:12;10.45;;;3.13;;
64712;SDS011;51140;45.340;5.980;2023-07-13T05:48:37;11.07;;;3.25;;
64712;SDS011;51140;45.340;5.980;2023-07-13T05:51:02;9.52;;;3.17;;
64712;SDS011;51140;45.340;5.980;2023-07-13T05:53:28;12.25;;;3.53;;
64712;SDS011;51140;45.340;5.980;2023-07-13T05:55:54;7.00;;;3.70;;
64712;SDS011;51140;45.340;5.980;2023-07-13T05:58:20;9.30;;;3.92;;
64712;SDS011;51140;45.340;5.980;2023-07-13T06:00:46;8.57;;;3.25;;
64712;SDS011;51140;45.340;5.980;2023-07-13T06:03:12;13.45;;;3.95;;
64712;SDS011;51140;45.340;5.980;2023-07-13T06:05:38;10.20;;;3.47;;
64712;SDS011;51140;45.340;5.980;2023-07-13T06:08:04;8.77;;;3.53;;
64712;SDS011;51140;45.340;5.980;2023-07-13T06:10:32;10.35;;;3.72;;
64712;SDS011;51140;45.340;5.980;2023-07-13T06:12:58;7.32;;;2.97;;
64712;SDS011;51140;45.340;5.980;2023-07-13T06:15:23;8.82;;;3.55;;
64712;SDS011;51140;45.340;5.980;2023-07-13T06:17:49;12.32;;;2.90;;
64712;SDS011;51140;45.340;5.980;2023-07-13T06:20:14;9.20;;;2.75;;
64712;SDS011;51140;45.340;5.980;2023-07-13T06:22:40;10.43;;;3.20;;
64712;SDS011;51140;45.340;5.980;2023-07-13T06:25:05;12.50;;;3.10;;
64712;SDS011;51140;45.340;5.980;2023-07-13T06:27:31;7.90;;;2.97;;
64712;SDS011;51140;45.340;5.980;2023-07-13T06:29:56;8.15;;;2.97;;
64712;SDS011;51140;45.340;5.980;2023-07-13T06:32:22;6.65;;;3.10;;
64712;SDS011;51140;45.340;5.980;2023-07-13T06:34:47;10.00;;;3.28;;
64712;SDS011;51140;45.340;5.980;2023-07-13T06:37:12;12.68;;;3.08;;
64712;SDS011;51140;45.340;5.980;2023-07-13T06:39:38;10.02;;;2.72;;
64712;SDS011;51140;45.340;5.980;2023-07-13T06:42:03;10.07;;;2.65;;
64712;SDS011;51140;45.340;5.980;2023-07-13T06:44:30;9.07;;;3.30;;
64712;SDS011;51140;45.340;5.980;2023-07-13T06:46:55;9.10;;;3.30;;
64712;SDS011;51140;45.340;5.980;2023-07-13T06:49:21;6.43;;;3.15;;
64712;SDS011;51140;45.340;5.980;2023-07-13T06:51:46;6.63;;;3.08;;
64712;SDS011;51140;45.340;5.980;2023-07-13T06:54:12;8.52;;;2.90;;
64712;SDS011;51140;45.340;5.980;2023-07-13T06:56:38;10.50;;;3.35;;
64712;SDS011;51140;45.340;5.980;2023-07-13T06:59:03;10.35;;;3.35;;
64712;SDS011;51140;45.340;5.980;2023-07-13T07:01:29;7.32;;;2.75;;
64712;SDS011;51140;45.340;5.980;2023-07-13T07:03:54;7.50;;;2.55;;
64712;SDS011;51140;45.340;5.980;2023-07-13T07:06:20;9.00;;;2.60;;
64712;SDS011;51140;45.340;5.980;2023-07-13T07:08:48;9.60;;;2.85;;
64712;SDS011;51140;45.340;5.980;2023-07-13T07:11:16;6.72;;;2.35;;
64712;SDS011;51140;45.340;5.980;2023-07-13T07:13:43;3.80;;;1.77;;
64712;SDS011;51140;45.340;5.980;2023-07-13T07:16:08;4.47;;;1.50;;
64712;SDS011;51140;45.340;5.980;2023-07-13T07:18:34;3.95;;;1.38;;
64712;SDS011;51140;45.340;5.980;2023-07-13T07:21:00;3.88;;;1.42;;
64712;SDS011;51140;45.340;5.980;2023-07-13T07:23:25;4.93;;;1.50;;
64712;SDS011;51140;45.340;5.980;2023-07-13T07:25:51;7.93;;;1.83;;
64712;SDS011;51140;45.340;5.980;2023-07-13T07:28:17;4.85;;;1.40;;
64712;SDS011;51140;45.340;5.980;2023-07-13T07:30:44;4.93;;;1.50;;
64712;SDS011;51140;45.340;5.980;2023-07-13T07:33:12;3.33;;;1.20;;
64712;SDS011;51140;45.340;5.980;2023-07-13T07:35:38;4.70;;;1.42;;
64712;SDS011;51140;45.340;5.980;2023-07-13T07:38:04;3.42;;;1.20;;
64712;SDS011;51140;45.340;5.980;2023-07-13T07:40:29;3.63;;;1.20;;
64712;SDS011;51140;45.340;5.980;2023-07-13T07:42:54;5.40;;;1.38;;
64712;SDS011;51140;45.340;5.980;2023-07-13T07:45:20;5.97;;;1.33;;
64712;SDS011;51140;45.340;5.980;2023-07-13T07:47:45;2.58;;;1.10;;
64712;SDS011;51140;45.340;5.980;2023-07-13T07:50:11;4.32;;;1.50;;
64712;SDS011;51140;45.340;5.980;2023-07-13T07:52:37;4.25;;;1.27;;
64712;SDS011;51140;45.340;5.980;2023-07-13T07:55:03;3.55;;;1.40;;
64712;SDS011;51140;45.340;5.980;2023-07-13T07:57:30;4.60;;;1.40;;
64712;SDS011;51140;45.340;5.980;2023-07-13T07:59:55;7.00;;;1.33;;
64712;SDS011;51140;45.340;5.980;2023-07-13T08:02:20;6.72;;;1.50;;
64712;SDS011;51140;45.340;5.980;2023-07-13T08:04:46;5.10;;;1.30;;
64712;SDS011;51140;45.340;5.980;2023-07-13T08:07:11;2.83;;;1.10;;
64712;SDS011;51140;45.340;5.980;2023-07-13T08:09:36;5.20;;;1.33;;
64712;SDS011;51140;45.340;5.980;2023-07-13T08:12:02;3.30;;;1.40;;
64712;SDS011;51140;45.340;5.980;2023-07-13T08:14:27;4.18;;;1.38;;
64712;SDS011;51140;45.340;5.980;2023-07-13T08:16:53;3.00;;;1.20;;
64712;SDS011;51140;45.340;5.980;2023-07-13T08:19:18;3.05;;;1.30;;
64712;SDS011;51140;45.340;5.980;2023-07-13T08:21:44;4.32;;;1.20;;
64712;SDS011;51140;45.340;5.980;2023-07-13T08:24:09;5.10;;;1.33;;
64712;SDS011;51140;45.340;5.980;2023-07-13T08:26:35;2.38;;;1.10;;
64712;SDS011;51140;45.340;5.980;2023-07-13T08:29:00;3.83;;;1.38;;
64712;SDS011;51140;45.340;5.980;2023-07-13T08:31:26;3.72;;;1.30;;
64712;SDS011;51140;45.340;5.980;2023-07-13T08:33:51;12.18;;;1.65;;
64712;SDS011;51140;45.340;5.980;2023-07-13T08:36:17;2.55;;;1.23;;
64712;SDS011;51140;45.340;5.980;2023-07-13T08:38:42;3.00;;;1.15;;
64712;SDS011;51140;45.340;5.980;2023-07-13T08:41:14;3.88;;;1.20;;
64712;SDS011;51140;45.340;5.980;2023-07-13T08:43:42;8.75;;;1.50;;
64712;SDS011;51140;45.340;5.980;2023-07-13T08:46:19;5.07;;;1.33;;
64712;SDS011;51140;45.340;5.980;2023-07-13T08:48:56;4.22;;;1.40;;
64712;SDS011;51140;45.340;5.980;2023-07-13T08:54:39;4.47;;;1.30;;
64712;SDS011;51140;45.340;5.980;2023-07-13T08:57:13;6.53;;;1.40;;
64712;SDS011;51140;45.340;5.980;2023-07-13T08:59:40;3.40;;;1.30;;
64712;SDS011;51140;45.340;5.980;2023-07-13T09:02:25;5.63;;;1.13;;
64712;SDS011;51140;45.340;5.980;2023-07-13T09:10:12;2.92;;;1.10;;
64712;SDS011;51140;45.340;5.980;2023-07-13T09:15:23;4.03;;;1.20;;
64712;SDS011;51140;45.340;5.980;2023-07-13T09:17:56;3.50;;;1.30;;
64712;SDS011;51140;45.340;5.980;2023-07-13T09:20:31;3.83;;;1.40;;
64712;SDS011;51140;45.340;5.980;2023-07-13T09:23:03;4.40;;;1.58;;
64712;SDS011;51140;45.340;5.980;2023-07-13T09:25:33;3.70;;;1.25;;
64712;SDS011;51140;45.340;5.980;2023-07-13T09:28:02;3.90;;;1.30;;
64712;SDS011;51140;45.340;5.980;2023-07-13T09:33:18;5.05;;;1.35;;
64712;SDS011;51140;45.340;5.980;2023-07-13T09:35:44;3.03;;;1.10;;
64712;SDS011;51140;45.340;5.980;2023-07-13T09:38:11;3.47;;;1.55;;
64712;SDS011;51140;45.340;5.980;2023-07-13T09:43:35;4.28;;;1.20;;
64712;SDS011;51140;45.340;5.980;2023-07-13T09:46:01;3.80;;;1.50;;
64712;SDS011;51140;45.340;5.980;2023-07-13T09:48:30;3.45;;;1.42;;
64712;SDS011;51140;45.340;5.980;2023-07-13T09:51:06;8.35;;;1.88;;
64712;SDS011;51140;45.340;5.980;2023-07-13T09:53:39;2.85;;;1.20;;
64712;SDS011;51140;45.340;5.980;2023-07-13T09:56:18;4.63;;;1.65;;
64712;SDS011;51140;45.340;5.980;2023-07-13T09:58:45;4.05;;;1.38;;
64712;SDS011;51140;45.340;5.980;2023-07-13T10:01:10;4.60;;;1.33;;
64712;SDS011;51140;45.340;5.980;2023-07-13T10:03:36;4.18;;;1.35;;
64712;SDS011;51140;45.340;5.980;2023-07-13T10:06:14;3.95;;;1.40;;
64712;SDS011;51140;45.340;5.980;2023-07-13T10:08:42;4.78;;;1.50;;
64712;SDS011;51140;45.340;5.980;2023-07-13T10:13:37;4.35;;;1.25;;
64712;SDS011;51140;45.340;5.980;2023-07-13T10:16:07;4.15;;;1.40;;
64712;SDS011;51140;45.340;5.980;2023-07-13T10:18:39;4.35;;;1.50;;
64712;SDS011;51140;45.340;5.980;2023-07-13T10:21:17;3.00;;;1.20;;
64712;SDS011;51140;45.340;5.980;2023-07-13T10:23:47;3.28;;;1.27;;
64712;SDS011;51140;45.340;5.980;2023-07-13T10:26:19;4.13;;;1.17;;
64712;SDS011;51140;45.340;5.980;2023-07-13T10:28:51;4.40;;;1.30;;
64712;SDS011;51140;45.340;5.980;2023-07-13T10:31:20;4.55;;;1.30;;
64712;SDS011;51140;45.340;5.980;2023-07-13T10:33:46;2.90;;;1.20;;
64712;SDS011;51140;45.340;5.980;2023-07-13T10:36:33;4.50;;;1.25;;
64712;SDS011;51140;45.340;5.980;2023-07-13T10:39:04;6.40;;;1.30;;
64712;SDS011;51140;45.340;5.980;2023-07-13T10:41:31;2.55;;;1.20;;
64712;SDS011;51140;45.340;5.980;2023-07-13T10:44:00;4.70;;;1.33;;
64712;SDS011;51140;45.340;5.980;2023-07-13T10:46:26;4.55;;;1.10;;
64712;SDS011;51140;45.340;5.980;2023-07-13T10:49:02;3.10;;;1.20;;
64712;SDS011;51140;45.340;5.980;2023-07-13T10:51:32;4.43;;;1.25;;
64712;SDS011;51140;45.340;5.980;2023-07-13T10:54:12;2.85;;;1.00;;
64712;SDS011;51140;45.340;5.980;2023-07-13T10:56:40;2.22;;;1.10;;
64712;SDS011;51140;45.340;5.980;2023-07-13T11:04:21;3.40;;;1.08;;
64712;SDS011;51140;45.340;5.980;2023-07-13T11:06:50;3.03;;;0.98;;
64712;SDS011;51140;45.340;5.980;2023-07-13T11:12:06;2.92;;;1.02;;
64712;SDS011;51140;45.340;5.980;2023-07-13T11:14:35;3.15;;;1.10;;
64712;SDS011;51140;45.340;5.980;2023-07-13T11:20:09;4.35;;;1.25;;
64712;SDS011;51140;45.340;5.980;2023-07-13T11:22:46;3.92;;;1.40;;
64712;SDS011;51140;45.340;5.980;2023-07-13T11:27:45;4.57;;;1.20;;
64712;SDS011;51140;45.340;5.980;2023-07-13T11:30:24;2.63;;;1.10;;
64712;SDS011;51140;45.340;5.980;2023-07-13T11:38:41;3.60;;;1.30;;
64712;SDS011;51140;45.340;5.980;2023-07-13T11:41:17;3.17;;;1.13;;
64712;SDS011;51140;45.340;5.980;2023-07-13T11:43:48;4.03;;;1.50;;
64712;SDS011;51140;45.340;5.980;2023-07-13T11:46:23;4.07;;;0.98;;
64712;SDS011;51140;45.340;5.980;2023-07-13T11:48:52;3.95;;;1.27;;
64712;SDS011;51140;45.340;5.980;2023-07-13T11:51:20;2.75;;;0.98;;
64712;SDS011;51140;45.340;5.980;2023-07-13T11:53:47;2.75;;;1.00;;
64712;SDS011;51140;45.340;5.980;2023-07-13T11:56:15;5.80;;;1.23;;
64712;SDS011;51140;45.340;5.980;2023-07-13T11:58:40;2.28;;;1.02;;
64712;SDS011;51140;45.340;5.980;2023-07-13T12:01:10;3.05;;;1.10;;
64712;SDS011;51140;45.340;5.980;2023-07-13T12:03:43;3.00;;;1.05;;
64712;SDS011;51140;45.340;5.980;2023-07-13T12:06:28;3.30;;;1.17;;
64712;SDS011;51140;45.340;5.980;2023-07-13T12:09:02;3.63;;;1.20;;
64712;SDS011;51140;45.340;5.980;2023-07-13T12:11:37;2.78;;;1.00;;
64712;SDS011;51140;45.340;5.980;2023-07-13T12:14:05;3.63;;;1.23;;
64712;SDS011;51140;45.340;5.980;2023-07-13T12:16:31;3.63;;;1.17;;
64712;SDS011;51140;45.340;5.980;2023-07-13T12:18:58;3.42;;;1.15;;
64712;SDS011;51140;45.340;5.980;2023-07-13T12:21:36;2.53;;;1.05;;
64712;SDS011;51140;45.340;5.980;2023-07-13T12:24:03;3.75;;;1.20;;
64712;SDS011;51140;45.340;5.980;2023-07-13T12:26:30;5.68;;;1.20;;
64712;SDS011;51140;45.340;5.980;2023-07-13T12:28:58;4.78;;;1.10;;
64712;SDS011;51140;45.340;5.980;2023-07-13T12:34:02;2.75;;;1.10;;
64712;SDS011;51140;45.340;5.980;2023-07-13T12:36:36;3.65;;;1.15;;
64712;SDS011;51140;45.340;5.980;2023-07-13T12:39:04;3.30;;;0.98;;
64712;SDS011;51140;45.340;5.980;2023-07-13T12:41:37;4.18;;;1.40;;
64712;SDS011;51140;45.340;5.980;2023-07-13T12:44:04;2.83;;;1.02;;
64712;SDS011;51140;45.340;5.980;2023-07-13T12:46:33;4.00;;;0.95;;
64712;SDS011;51140;45.340;5.980;2023-07-13T12:48:59;2.95;;;0.80;;
64712;SDS011;51140;45.340;5.980;2023-07-13T12:51:25;1.95;;;0.90;;
64712;SDS011;51140;45.340;5.980;2023-07-13T12:56:44;1.65;;;0.77;;
64712;SDS011;51140;45.340;5.980;2023-07-13T12:59:14;3.95;;;1.00;;
64712;SDS011;51140;45.340;5.980;2023-07-13T13:01:43;3.88;;;1.30;;
64712;SDS011;51140;45.340;5.980;2023-07-13T13:04:08;1.95;;;0.80;;
64712;SDS011;51140;45.340;5.980;2023-07-13T13:06:36;3.53;;;0.80;;
64712;SDS011;51140;45.340;5.980;2023-07-13T13:09:02;2.72;;;0.90;;
64712;SDS011;51140;45.340;5.980;2023-07-13T13:11:30;1.70;;;0.90;;
64712;SDS011;51140;45.340;5.980;2023-07-13T13:13:56;3.90;;;1.00;;
64712;SDS011;51140;45.340;5.980;2023-07-13T13:18:51;1.92;;;0.80;;
64712;SDS011;51140;45.340;5.980;2023-07-13T13:21:19;2.28;;;0.90;;
64712;SDS011;51140;45.340;5.980;2023-07-13T13:23:45;4.72;;;1.08;;
64712;SDS011;51140;45.340;5.980;2023-07-13T13:26:12;5.75;;;1.08;;
64712;SDS011;51140;45.340;5.980;2023-07-13T13:28:43;4.50;;;1.10;;
64712;SDS011;51140;45.340;5.980;2023-07-13T13:31:10;1.33;;;0.80;;
64712;SDS011;51140;45.340;5.980;2023-07-13T13:33:38;4.75;;;1.23;;
64712;SDS011;51140;45.340;5.980;2023-07-13T13:36:16;1.70;;;0.80;;
64712;SDS011;51140;45.340;5.980;2023-07-13T13:38:43;4.00;;;0.82;;
64712;SDS011;51140;45.340;5.980;2023-07-13T13:41:10;1.92;;;0.90;;
64712;SDS011;51140;45.340;5.980;2023-07-13T13:43:38;2.53;;;1.00;;
64712;SDS011;51140;45.340;5.980;2023-07-13T13:46:15;3.75;;;1.20;;
64712;SDS011;51140;45.340;5.980;2023-07-13T13:48:46;5.53;;;1.00;;
64712;SDS011;51140;45.340;5.980;2023-07-13T13:51:30;3.90;;;1.05;;
64712;SDS011;51140;45.340;5.980;2023-07-13T13:53:56;3.28;;;1.10;;
64712;SDS011;51140;45.340;5.980;2023-07-13T13:56:22;2.63;;;0.93;;
64712;SDS011;51140;45.340;5.980;2023-07-13T13:58:47;3.85;;;1.13;;
64712;SDS011;51140;45.340;5.980;2023-07-13T14:01:15;2.90;;;1.10;;
64712;SDS011;51140;45.340;5.980;2023-07-13T14:03:43;3.20;;;1.10;;
64712;SDS011;51140;45.340;5.980;2023-07-13T14:06:12;3.50;;;1.13;;
64712;SDS011;51140;45.340;5.980;2023-07-13T14:08:38;3.40;;;1.10;;
64712;SDS011;51140;45.340;5.980;2023-07-13T14:11:04;4.45;;;1.13;;
64712;SDS011;51140;45.340;5.980;2023-07-13T14:13:37;2.42;;;1.00;;
64712;SDS011;51140;45.340;5.980;2023-07-13T14:16:09;3.70;;;1.10;;
64712;SDS011;51140;45.340;5.980;2023-07-13T14:18:37;3.80;;;1.02;;
64712;SDS011;51140;45.340;5.980;2023-07-13T14:21:03;4.05;;;1.00;;
64712;SDS011;51140;45.340;5.980;2023-07-13T14:23:36;2.90;;;1.00;;
64712;SDS011;51140;45.340;5.980;2023-07-13T14:26:01;4.10;;;1.00;;
64712;SDS011;51140;45.340;5.980;2023-07-13T14:28:27;4.22;;;1.52;;
64712;SDS011;51140;45.340;5.980;2023-07-13T14:30:53;3.03;;;0.80;;
64712;SDS011;51140;45.340;5.980;2023-07-13T14:33:22;4.30;;;0.98;;
64712;SDS011;51140;45.340;5.980;2023-07-13T14:35:48;3.05;;;1.15;;
64712;SDS011;51140;45.340;5.980;2023-07-13T14:38:15;2.30;;;0.77;;
64712;SDS011;51140;45.340;5.980;2023-07-13T14:40:43;4.05;;;1.08;;
64712;SDS011;51140;45.340;5.980;2023-07-13T14:43:09;3.42;;;0.80;;
64712;SDS011;51140;45.340;5.980;2023-07-13T14:45:43;3.00;;;1.10;;
64712;SDS011;51140;45.340;5.980;2023-07-13T14:48:17;2.58;;;1.10;;
64712;SDS011;51140;45.340;5.980;2023-07-13T14:50:46;3.03;;;0.82;;
64712;SDS011;51140;45.340;5.980;2023-07-13T14:53:12;2.78;;;1.08;;
64712;SDS011;51140;45.340;5.980;2023-07-13T14:55:38;5.05;;;1.25;;
64712;SDS011;51140;45.340;5.980;2023-07-13T14:58:04;2.25;;;0.93;;
64712;SDS011;51140;45.340;5.980;2023-07-13T15:00:30;5.95;;;1.02;;
64712;SDS011;51140;45.340;5.980;2023-07-13T15:02:57;3.75;;;1.17;;
64712;SDS011;51140;45.340;5.980;2023-07-13T15:05:25;3.53;;;1.15;;
64712;SDS011;51140;45.340;5.980;2023-07-13T15:07:55;2.50;;;0.98;;
64712;SDS011;51140;45.340;5.980;2023-07-13T15:10:30;3.65;;;0.90;;
64712;SDS011;51140;45.340;5.980;2023-07-13T15:12:58;2.50;;;1.00;;
64712;SDS011;51140;45.340;5.980;2023-07-13T15:15:26;6.00;;;0.98;;
64712;SDS011;51140;45.340;5.980;2023-07-13T15:17:57;2.55;;;0.90;;
64712;SDS011;51140;45.340;5.980;2023-07-13T15:20:33;2.88;;;1.10;;
64712;SDS011;51140;45.340;5.980;2023-07-13T15:23:00;5.47;;;1.00;;
64712;SDS011;51140;45.340;5.980;2023-07-13T15:25:27;4.60;;;1.13;;
64712;SDS011;51140;45.340;5.980;2023-07-13T15:27:55;5.63;;;1.20;;
64712;SDS011;51140;45.340;5.980;2023-07-13T15:30:22;3.53;;;0.90;;
64712;SDS011;51140;45.340;5.980;2023-07-13T15:32:50;1.98;;;0.90;;
64712;SDS011;51140;45.340;5.980;2023-07-13T15:35:16;3.47;;;1.00;;
64712;SDS011;51140;45.340;5.980;2023-07-13T15:37:45;4.25;;;1.02;;
64712;SDS011;51140;45.340;5.980;2023-07-13T15:40:12;4.20;;;1.00;;